createdAt,value
2018-03-14T00:00:13.664Z,711.41
2018-03-14T00:01:14.131Z,711.30
2018-03-14T00:02:14.630Z,711.29
2018-03-14T00:03:15.075Z,711.28
2018-03-14T00:04:15.544Z,711.26
2018-03-14T00:05:16.014Z,711.27
2018-03-14T00:06:16.486Z,711.37
2018-03-14T00:07:16.955Z,711.31
2018-03-14T00:08:17.426Z,711.30
2018-03-14T00:09:17.898Z,711.23
2018-03-14T00:10:18.368Z,711.56
2018-03-14T00:11:18.839Z,711.20
2018-03-14T00:12:19.360Z,711.22
2018-03-14T00:13:19.780Z,711.41
2018-03-14T00:14:20.252Z,711.35
2018-03-14T00:15:20.723Z,711.28
2018-03-14T00:16:21.193Z,711.53
2018-03-14T00:17:21.664Z,711.34
2018-03-14T00:18:22.134Z,711.09
2018-03-14T00:19:22.651Z,711.34
2018-03-14T00:20:23.075Z,711.43
2018-03-14T00:21:23.546Z,711.41
2018-03-14T00:22:24.017Z,711.17
2018-03-14T00:23:24.488Z,711.34
2018-03-14T00:24:24.957Z,711.46
2018-03-14T00:25:25.431Z,711.36
2018-03-14T00:26:25.899Z,711.42
2018-03-14T00:27:26.369Z,711.42
2018-03-14T00:28:26.844Z,711.22
2018-03-14T00:29:27.312Z,711.29
2018-03-14T00:30:27.782Z,711.44
2018-03-14T00:31:28.253Z,711.36
2018-03-14T00:32:28.724Z,711.48
2018-03-14T00:33:29.193Z,711.52
2018-03-14T00:34:29.665Z,711.36
2018-03-14T00:35:30.136Z,711.48
2018-03-14T00:36:30.605Z,711.57
2018-03-14T00:37:31.075Z,711.62
2018-03-14T00:38:31.548Z,711.48
2018-03-14T00:39:32.018Z,711.52
2018-03-14T00:40:32.491Z,711.49
2018-03-14T00:41:32.959Z,711.32
2018-03-14T00:42:33.434Z,711.18
2018-03-14T00:43:33.904Z,711.54
2018-03-14T00:44:34.372Z,711.43
2018-03-14T00:45:34.843Z,711.38
2018-03-14T00:46:35.311Z,711.32
2018-03-14T00:47:35.783Z,711.41
2018-03-14T00:48:36.252Z,711.46
2018-03-14T00:49:36.723Z,711.44
2018-03-14T00:50:37.193Z,711.35
2018-03-14T00:51:37.664Z,711.34
2018-03-14T00:52:38.135Z,711.46
2018-03-14T00:53:38.606Z,711.51
2018-03-14T00:54:39.076Z,711.50
2018-03-14T00:55:39.547Z,711.43
2018-03-14T00:56:40.018Z,711.36
2018-03-14T00:57:40.491Z,711.43
2018-03-14T00:58:40.958Z,711.34
2018-03-14T00:59:41.429Z,711.55
2018-03-14T01:00:41.901Z,711.40
2018-03-14T01:01:42.369Z,711.55
2018-03-14T01:02:42.890Z,711.42
2018-03-14T01:03:43.310Z,711.42
2018-03-14T01:04:43.787Z,711.41
2018-03-14T01:05:44.252Z,711.30
2018-03-14T01:06:44.723Z,711.34
2018-03-14T01:07:45.191Z,711.43
2018-03-14T01:08:45.664Z,711.44
2018-03-14T01:09:46.133Z,711.38
2018-03-14T01:10:46.603Z,711.30
2018-03-14T01:11:47.075Z,711.38
2018-03-14T01:12:47.598Z,711.33
2018-03-14T01:13:48.015Z,711.29
2018-03-14T01:14:48.485Z,711.35
2018-03-14T01:15:48.958Z,711.37
2018-03-14T01:16:49.429Z,711.20
2018-03-14T01:17:49.896Z,711.40
2018-03-14T01:18:50.369Z,711.28
2018-03-14T01:19:50.839Z,711.35
2018-03-14T01:20:51.313Z,711.37
2018-03-14T01:21:51.781Z,711.35
2018-03-14T01:22:52.250Z,711.30
2018-03-14T01:23:52.722Z,711.31
2018-03-14T01:24:53.191Z,711.36
2018-03-14T01:25:53.662Z,711.38
2018-03-14T01:26:54.136Z,711.33
2018-03-14T01:27:54.656Z,711.26
2018-03-14T01:28:55.075Z,711.21
2018-03-14T01:29:55.543Z,711.06
2018-03-14T01:30:56.016Z,711.17
2018-03-14T01:31:56.485Z,711.26
2018-03-14T01:32:56.955Z,711.20
2018-03-14T01:33:57.424Z,711.16
2018-03-14T01:34:57.895Z,711.19
2018-03-14T01:35:58.368Z,711.25
2018-03-14T01:36:58.837Z,711.26
2018-03-14T01:37:59.460Z,711.33
2018-03-14T01:38:59.778Z,711.35
2018-03-14T01:40:00.249Z,711.21
2018-03-14T01:41:00.718Z,711.34
2018-03-14T01:42:01.188Z,711.26
2018-03-14T01:43:01.709Z,711.30
2018-03-14T01:44:02.130Z,711.30
2018-03-14T01:45:02.600Z,711.28
2018-03-14T01:46:03.072Z,711.28
2018-03-14T01:47:03.541Z,711.24
2018-03-14T01:48:04.012Z,711.31
2018-03-14T01:49:04.483Z,711.22
2018-03-14T01:50:04.953Z,711.24
2018-03-14T01:51:05.422Z,711.35
2018-03-14T01:52:05.893Z,711.39
2018-03-14T01:53:06.364Z,711.24
2018-03-14T01:54:06.833Z,711.21
2018-03-14T01:55:07.304Z,711.25
2018-03-14T01:56:07.777Z,711.26
2018-03-14T01:57:08.246Z,711.31
2018-03-14T01:58:08.719Z,711.12
2018-03-14T01:59:09.187Z,711.05
2018-03-14T02:00:09.657Z,711.15
2018-03-14T02:01:10.128Z,711.32
2018-03-14T02:02:10.596Z,711.27
2018-03-14T02:03:11.068Z,711.24
2018-03-14T02:04:11.539Z,711.22
2018-03-14T02:05:12.010Z,711.28
2018-03-14T02:06:12.479Z,711.28
2018-03-14T02:07:12.949Z,711.27
2018-03-14T02:08:13.471Z,711.31
2018-03-14T02:09:13.891Z,711.24
2018-03-14T02:10:14.360Z,711.22
2018-03-14T02:11:14.830Z,711.29
2018-03-14T02:12:15.302Z,711.31
2018-03-14T02:13:15.975Z,711.26
2018-03-14T02:14:16.243Z,711.23
2018-03-14T02:15:16.712Z,711.34
2018-03-14T02:16:17.185Z,711.31
2018-03-14T02:17:17.654Z,711.30
2018-03-14T02:18:18.125Z,711.32
2018-03-14T02:19:18.594Z,711.34
2018-03-14T02:20:19.065Z,711.34
2018-03-14T02:21:19.535Z,711.40
2018-03-14T02:22:20.006Z,711.30
2018-03-14T02:23:20.476Z,711.22
2018-03-14T02:24:20.946Z,711.24
2018-03-14T02:25:21.416Z,711.32
2018-03-14T02:26:21.888Z,711.21
2018-03-14T02:27:22.359Z,711.26
2018-03-14T02:28:22.828Z,711.23
2018-03-14T02:29:23.299Z,711.30
2018-03-14T02:30:23.768Z,711.23
2018-03-14T02:31:24.242Z,711.29
2018-03-14T02:32:24.710Z,711.26
2018-03-14T02:33:25.180Z,711.32
2018-03-14T02:34:25.655Z,711.34
2018-03-14T02:35:26.124Z,711.28
2018-03-14T02:36:26.590Z,711.37
2018-03-14T02:37:27.063Z,711.23
2018-03-14T02:38:27.533Z,711.25
2018-03-14T02:39:28.003Z,711.34
2018-03-14T02:40:28.471Z,711.22
2018-03-14T02:41:28.945Z,711.37
2018-03-14T02:42:29.415Z,711.41
2018-03-14T02:43:29.887Z,711.27
2018-03-14T02:44:30.358Z,711.39
2018-03-14T02:45:30.826Z,711.25
2018-03-14T02:46:31.297Z,711.36
2018-03-14T02:47:31.765Z,711.33
2018-03-14T02:48:32.239Z,711.35
2018-03-14T02:49:32.707Z,711.13
2018-03-14T02:50:33.175Z,711.19
2018-03-14T02:51:33.647Z,711.25
2018-03-14T02:52:34.117Z,710.95
2018-03-14T02:53:34.593Z,711.26
2018-03-14T02:54:35.058Z,711.27
2018-03-14T02:55:35.533Z,711.11
2018-03-14T02:56:36.004Z,711.04
2018-03-14T02:57:36.474Z,711.30
2018-03-14T02:58:36.941Z,711.27
2018-03-14T02:59:37.415Z,711.35
2018-03-14T03:00:37.884Z,711.48
2018-03-14T03:01:38.355Z,711.41
2018-03-14T03:02:38.826Z,711.40
2018-03-14T03:04:39.766Z,711.34
2018-03-14T03:05:40.235Z,711.39
2018-03-14T03:06:40.708Z,711.37
2018-03-14T03:07:41.177Z,711.44
2018-03-14T03:08:41.646Z,711.45
2018-03-14T03:09:42.119Z,711.50
2018-03-14T03:10:42.592Z,711.50
2018-03-14T03:11:43.058Z,711.40
2018-03-14T03:13:44.000Z,711.38
2018-03-14T03:14:44.465Z,711.46
2018-03-14T03:15:44.938Z,711.47
2018-03-14T03:17:45.880Z,711.49
2018-03-14T03:18:46.350Z,711.49
2018-03-14T03:20:47.289Z,711.45
2018-03-14T03:21:47.756Z,711.43
2018-03-14T03:22:48.229Z,711.47
2018-03-14T03:23:48.700Z,711.50
2018-03-14T03:24:49.169Z,711.43
2018-03-14T03:25:49.640Z,711.46
2018-03-14T03:26:50.111Z,711.53
2018-03-14T03:27:50.580Z,711.37
2018-03-14T03:28:51.099Z,711.51
2018-03-14T03:29:51.521Z,711.48
2018-03-14T03:30:51.993Z,711.56
2018-03-14T03:31:52.461Z,711.58
2018-03-14T03:32:52.932Z,711.44
2018-03-14T03:33:53.408Z,711.55
2018-03-14T03:34:53.870Z,711.57
2018-03-14T03:35:54.344Z,711.62
2018-03-14T03:36:54.812Z,711.67
2018-03-14T03:37:55.282Z,711.71
2018-03-14T03:38:55.746Z,711.58
2018-03-14T03:39:56.221Z,711.52
2018-03-14T03:41:57.163Z,711.55
2018-03-14T03:42:57.632Z,711.50
2018-03-14T03:43:58.154Z,711.62
2018-03-14T03:44:58.566Z,711.60
2018-03-14T03:46:59.511Z,711.56
2018-03-14T03:47:59.983Z,711.57
2018-03-14T03:49:00.448Z,711.52
2018-03-14T03:50:00.927Z,711.55
2018-03-14T03:51:01.393Z,711.52
2018-03-14T03:52:01.900Z,711.46
2018-03-14T03:53:02.334Z,711.56
2018-03-14T03:54:02.806Z,711.59
2018-03-14T03:55:03.266Z,711.58
2018-03-14T03:56:03.745Z,711.56
2018-03-14T03:57:04.220Z,711.53
2018-03-14T03:58:04.687Z,711.63
2018-03-14T03:59:05.149Z,711.49
2018-03-14T04:00:05.623Z,711.58
2018-03-14T04:01:06.093Z,711.64
2018-03-14T04:02:06.564Z,711.48
2018-03-14T04:04:07.658Z,711.48
2018-03-14T04:05:07.968Z,711.41
2018-03-14T04:06:08.443Z,711.53
2018-03-14T04:07:08.913Z,711.52
2018-03-14T04:08:09.384Z,711.53
2018-03-14T04:09:09.850Z,711.58
2018-03-14T04:10:10.325Z,711.49
2018-03-14T04:11:10.792Z,711.38
2018-03-14T04:12:11.263Z,711.49
2018-03-14T04:13:11.735Z,711.41
2018-03-14T04:14:12.406Z,711.41
2018-03-14T04:15:12.676Z,711.42
2018-03-14T04:16:13.139Z,711.40
2018-03-14T04:17:13.613Z,711.20
2018-03-14T04:18:14.084Z,711.33
2018-03-14T04:19:14.557Z,711.36
2018-03-14T04:20:15.024Z,711.48
2018-03-14T04:21:15.492Z,711.39
2018-03-14T04:22:15.959Z,711.42
2018-03-14T04:23:16.432Z,711.28
2018-03-14T04:24:16.902Z,711.13
2018-03-14T04:25:17.374Z,711.34
2018-03-14T04:26:17.839Z,711.52
2018-03-14T04:27:18.310Z,711.38
2018-03-14T04:28:18.782Z,711.38
2018-03-14T04:29:19.253Z,711.42
2018-03-14T04:30:19.723Z,711.19
2018-03-14T04:31:20.191Z,711.01
2018-03-14T04:32:20.662Z,711.31
2018-03-14T04:33:21.133Z,711.38
2018-03-14T04:34:21.604Z,711.36
2018-03-14T04:35:22.067Z,711.22
2018-03-14T04:36:22.542Z,711.18
2018-03-14T04:37:23.020Z,711.44
2018-03-14T04:38:23.477Z,711.45
2018-03-14T04:39:23.954Z,711.51
2018-03-14T04:40:24.421Z,711.38
2018-03-14T04:41:24.891Z,711.35
2018-03-14T04:43:25.826Z,711.40
2018-03-14T04:44:26.352Z,711.23
2018-03-14T04:45:26.770Z,711.32
2018-03-14T04:46:27.237Z,711.53
2018-03-14T04:47:27.710Z,711.49
2018-03-14T04:48:28.182Z,711.41
2018-03-14T04:49:28.651Z,711.49
2018-03-14T04:51:29.585Z,711.18
2018-03-14T04:53:30.531Z,711.26
2018-03-14T04:54:31.001Z,711.41
2018-03-14T04:55:31.465Z,711.49
2018-03-14T04:56:31.941Z,711.14
2018-03-14T04:57:32.410Z,711.22
2018-03-14T04:58:32.876Z,711.42
2018-03-14T04:59:33.348Z,711.25
2018-03-14T05:00:33.820Z,711.24
2018-03-14T05:01:34.290Z,711.23
2018-03-14T05:02:34.755Z,711.03
2018-03-14T05:03:35.233Z,711.00
2018-03-14T05:04:35.749Z,711.24
2018-03-14T05:05:36.169Z,711.20
2018-03-14T05:06:36.640Z,711.11
2018-03-14T05:07:37.108Z,711.21
2018-03-14T05:08:37.579Z,711.08
2018-03-14T05:09:38.049Z,711.18
2018-03-14T05:10:38.517Z,711.06
2018-03-14T05:11:38.989Z,711.08
2018-03-14T05:12:39.456Z,711.13
2018-03-14T05:13:39.928Z,711.32
2018-03-14T05:14:40.397Z,711.39
2018-03-14T05:15:40.867Z,711.24
2018-03-14T05:16:41.337Z,711.36
2018-03-14T05:17:41.806Z,711.32
2018-03-14T05:18:42.270Z,711.24
2018-03-14T05:20:43.215Z,711.32
2018-03-14T05:21:43.685Z,711.29
2018-03-14T05:22:44.158Z,711.40
2018-03-14T05:23:44.625Z,711.37
2018-03-14T05:24:45.097Z,711.39
2018-03-14T05:25:45.564Z,711.34
2018-03-14T05:26:46.046Z,711.28
2018-03-14T05:27:46.503Z,711.34
2018-03-14T05:28:46.972Z,711.29
2018-03-14T05:29:47.443Z,711.32
2018-03-14T05:30:59.700Z,711.52
2018-03-14T05:31:48.381Z,711.15
2018-03-14T05:32:48.847Z,711.31
2018-03-14T05:34:49.791Z,711.31
2018-03-14T05:36:50.730Z,711.38
2018-03-14T05:38:51.671Z,711.36
2018-03-14T05:39:52.135Z,711.47
2018-03-14T05:40:52.658Z,711.35
2018-03-14T05:41:53.082Z,711.48
2018-03-14T05:42:53.549Z,711.60
2018-03-14T05:43:54.017Z,711.47
2018-03-14T05:44:54.487Z,711.37
2018-03-14T05:45:54.951Z,711.52
2018-03-14T05:46:55.425Z,711.60
2018-03-14T05:47:55.890Z,711.61
2018-03-14T05:49:56.835Z,711.51
2018-03-14T05:51:08.738Z,711.41
2018-03-14T05:51:57.769Z,711.52
2018-03-14T05:52:58.245Z,711.60
2018-03-14T05:53:58.715Z,711.59
2018-03-14T05:54:59.182Z,711.59
2018-03-14T05:55:59.855Z,711.73
2018-03-14T05:57:00.123Z,711.56
2018-03-14T05:59:01.062Z,711.70
2018-03-14T06:00:01.530Z,711.70
2018-03-14T06:01:13.738Z,711.47
2018-03-14T06:02:02.471Z,711.39
2018-03-14T06:03:02.941Z,711.50
2018-03-14T06:04:03.409Z,711.37
2018-03-14T06:05:03.878Z,711.61
2018-03-14T06:06:04.398Z,711.66
2018-03-14T06:07:04.818Z,711.61
2018-03-14T06:08:05.287Z,711.79
2018-03-14T06:10:06.223Z,711.71
2018-03-14T06:11:06.696Z,711.63
2018-03-14T06:12:07.215Z,711.76
2018-03-14T06:13:07.635Z,711.70
2018-03-14T06:14:08.104Z,711.78
2018-03-14T06:15:08.574Z,711.78
2018-03-14T06:16:09.042Z,711.78
2018-03-14T06:18:09.981Z,711.59
2018-03-14T06:20:10.914Z,711.74
2018-03-14T06:21:11.390Z,711.44
2018-03-14T06:22:11.863Z,711.73
2018-03-14T06:23:12.330Z,711.65
2018-03-14T06:24:12.799Z,711.67
2018-03-14T06:25:13.268Z,711.74
2018-03-14T06:26:13.735Z,711.81
2018-03-14T06:27:14.207Z,711.78
2018-03-14T06:28:14.675Z,711.77
2018-03-14T06:29:15.145Z,711.85
2018-03-14T06:30:15.614Z,711.92
2018-03-14T06:31:27.771Z,711.85
2018-03-14T06:32:16.553Z,711.90
2018-03-14T06:33:17.022Z,711.90
2018-03-14T06:34:17.492Z,711.82
2018-03-14T06:35:17.962Z,711.84
2018-03-14T06:36:30.180Z,711.77
2018-03-14T06:37:18.900Z,711.81
2018-03-14T06:38:19.366Z,711.87
2018-03-14T06:39:19.840Z,711.69
2018-03-14T06:40:20.307Z,711.91
2018-03-14T06:41:20.830Z,711.81
2018-03-14T06:42:21.248Z,711.95
2018-03-14T06:43:21.718Z,711.96
2018-03-14T06:44:22.187Z,711.84
2018-03-14T06:45:22.658Z,711.65
2018-03-14T06:46:23.121Z,712.06
2018-03-14T06:47:23.841Z,711.98
2018-03-14T06:48:24.064Z,711.97
2018-03-14T06:49:24.534Z,711.94
2018-03-14T06:50:25.002Z,711.89
2018-03-14T06:51:36.750Z,711.89
2018-03-14T06:52:25.941Z,711.92
2018-03-14T06:53:26.406Z,712.01
2018-03-14T06:54:26.884Z,711.82
2018-03-14T06:55:27.352Z,711.93
2018-03-14T06:56:27.820Z,711.84
2018-03-14T06:57:28.290Z,712.07
2018-03-14T06:58:28.759Z,711.94
2018-03-14T06:59:29.229Z,711.92
2018-03-14T07:00:29.700Z,712.07
2018-03-14T07:01:30.167Z,712.00
2018-03-14T07:02:30.638Z,712.08
2018-03-14T07:03:31.107Z,712.08
2018-03-14T07:04:31.577Z,712.00
2018-03-14T07:05:32.048Z,712.14
2018-03-14T07:06:32.520Z,711.96
2018-03-14T07:07:32.984Z,711.96
2018-03-14T07:08:33.454Z,711.95
2018-03-14T07:09:33.926Z,711.98
2018-03-14T07:10:34.395Z,711.92
2018-03-14T07:11:46.806Z,712.06
2018-03-14T07:13:35.803Z,711.98
2018-03-14T07:14:36.280Z,711.97
2018-03-14T07:15:36.744Z,711.89
2018-03-14T07:16:37.212Z,711.96
2018-03-14T07:17:37.689Z,711.99
2018-03-14T07:18:38.152Z,712.01
2018-03-14T07:19:38.618Z,712.06
2018-03-14T07:20:39.091Z,711.93
2018-03-14T07:22:40.034Z,712.00
2018-03-14T07:23:40.501Z,711.95
2018-03-14T07:24:40.971Z,712.04
2018-03-14T07:25:41.441Z,712.06
2018-03-14T07:26:41.909Z,712.03
2018-03-14T07:27:53.816Z,712.10
2018-03-14T07:28:42.844Z,712.12
2018-03-14T07:29:43.320Z,711.97
2018-03-14T07:30:43.788Z,712.03
2018-03-14T07:31:44.261Z,712.16
2018-03-14T07:32:44.751Z,712.12
2018-03-14T07:33:45.200Z,712.16
2018-03-14T07:34:45.700Z,712.10
2018-03-14T07:35:46.139Z,712.15
2018-03-14T07:36:46.608Z,712.12
2018-03-14T07:37:47.130Z,712.14
2018-03-14T07:38:47.548Z,712.06
2018-03-14T07:39:48.014Z,712.10
2018-03-14T07:41:48.958Z,712.05
2018-03-14T07:43:49.896Z,712.21
2018-03-14T07:45:50.838Z,712.14
2018-03-14T07:46:51.301Z,712.16
2018-03-14T07:47:51.829Z,712.10
2018-03-14T07:48:52.248Z,712.19
2018-03-14T07:49:52.718Z,712.22
2018-03-14T07:50:53.189Z,712.16
2018-03-14T07:51:53.652Z,712.17
2018-03-14T07:53:54.597Z,712.38
2018-03-14T07:54:55.062Z,712.26
2018-03-14T07:55:55.538Z,712.19
2018-03-14T07:56:56.009Z,712.21
2018-03-14T07:57:56.624Z,712.18
2018-03-14T07:58:56.970Z,712.25
2018-03-14T07:59:57.420Z,712.17
2018-03-14T08:00:57.891Z,712.18
2018-03-14T08:01:58.361Z,712.29
2018-03-14T08:02:58.825Z,712.27
2018-03-14T08:03:59.302Z,712.30
2018-03-14T08:04:59.770Z,712.27
2018-03-14T08:06:00.243Z,712.22
2018-03-14T08:07:00.715Z,712.30
2018-03-14T08:08:12.814Z,712.30
2018-03-14T08:09:01.661Z,712.18
2018-03-14T08:10:02.118Z,712.25
2018-03-14T08:11:02.594Z,712.15
2018-03-14T08:12:03.062Z,712.24
2018-03-14T08:13:03.534Z,712.22
2018-03-14T08:14:04.014Z,712.24
2018-03-14T08:15:04.477Z,712.29
2018-03-14T08:16:04.947Z,712.27
2018-03-14T08:17:05.416Z,712.32
2018-03-14T08:18:05.932Z,712.28
2018-03-14T08:19:06.357Z,712.26
2018-03-14T08:20:06.827Z,712.25
2018-03-14T08:21:07.298Z,712.23
2018-03-14T08:22:07.769Z,712.28
2018-03-14T08:23:08.285Z,712.28
2018-03-14T08:24:08.710Z,712.37
2018-03-14T08:25:09.180Z,712.27
2018-03-14T08:26:09.650Z,712.37
2018-03-14T08:27:10.119Z,712.28
2018-03-14T08:28:21.818Z,712.23
2018-03-14T08:29:11.062Z,712.21
2018-03-14T08:30:11.534Z,712.24
2018-03-14T08:31:12.008Z,712.36
2018-03-14T08:32:12.474Z,712.25
2018-03-14T08:33:12.993Z,712.31
2018-03-14T08:34:13.417Z,712.23
2018-03-14T08:35:13.884Z,712.25
2018-03-14T08:36:14.356Z,712.29
2018-03-14T08:37:14.878Z,712.21
2018-03-14T08:38:15.293Z,712.18
2018-03-14T08:39:15.767Z,712.25
2018-03-14T08:40:16.240Z,712.26
2018-03-14T08:42:17.179Z,712.21
2018-03-14T08:43:17.652Z,712.19
2018-03-14T08:44:18.120Z,712.22
2018-03-14T08:45:18.592Z,712.17
2018-03-14T08:46:19.062Z,712.35
2018-03-14T08:47:19.533Z,712.22
2018-03-14T08:48:19.999Z,712.23
2018-03-14T08:49:20.474Z,712.16
2018-03-14T08:50:20.979Z,712.33
2018-03-14T08:51:21.418Z,712.23
2018-03-14T08:52:21.887Z,712.33
2018-03-14T08:53:22.357Z,712.34
2018-03-14T08:55:23.302Z,712.26
2018-03-14T08:56:23.771Z,712.25
2018-03-14T08:57:24.241Z,712.27
2018-03-14T08:58:24.709Z,712.26
2018-03-14T08:59:25.182Z,712.19
2018-03-14T09:00:25.654Z,712.30
2018-03-14T09:01:26.125Z,712.21
2018-03-14T09:02:26.595Z,712.17
2018-03-14T09:03:27.116Z,712.26
2018-03-14T09:04:27.534Z,712.34
2018-03-14T09:05:28.007Z,712.32
2018-03-14T09:06:28.479Z,712.29
2018-03-14T09:07:28.950Z,712.27
2018-03-14T09:08:29.418Z,712.30
2018-03-14T09:09:29.892Z,712.32
2018-03-14T09:10:30.363Z,712.29
2018-03-14T09:11:30.836Z,712.37
2018-03-14T09:12:31.306Z,712.41
2018-03-14T09:14:32.250Z,712.36
2018-03-14T09:15:32.723Z,712.38
2018-03-14T09:16:33.192Z,712.29
2018-03-14T09:17:33.663Z,712.38
2018-03-14T09:18:34.131Z,712.39
2018-03-14T09:19:34.607Z,712.34
2018-03-14T09:20:35.079Z,712.44
2018-03-14T09:21:35.550Z,712.46
2018-03-14T09:22:36.023Z,712.42
2018-03-14T09:23:36.543Z,712.53
2018-03-14T09:24:36.966Z,712.40
2018-03-14T09:25:37.436Z,712.46
2018-03-14T09:26:37.901Z,712.40
2018-03-14T09:27:38.379Z,712.44
2018-03-14T09:28:38.903Z,712.47
2018-03-14T09:29:39.323Z,712.42
2018-03-14T09:30:39.790Z,712.50
2018-03-14T09:31:40.268Z,712.48
2018-03-14T09:33:52.948Z,712.36
2018-03-14T09:34:41.680Z,712.39
2018-03-14T09:35:42.156Z,712.46
2018-03-14T09:36:42.627Z,712.34
2018-03-14T09:37:43.100Z,712.28
2018-03-14T09:39:44.098Z,712.33
2018-03-14T09:40:44.516Z,712.40
2018-03-14T09:41:44.988Z,712.42
2018-03-14T09:42:45.460Z,712.48
2018-03-14T09:44:46.403Z,712.40
2018-03-14T09:45:46.876Z,712.40
2018-03-14T09:46:47.349Z,712.43
2018-03-14T09:47:47.817Z,712.46
2018-03-14T09:48:48.295Z,712.45
2018-03-14T09:49:48.766Z,712.36
2018-03-14T09:50:49.235Z,712.42
2018-03-14T09:51:49.713Z,712.40
2018-03-14T09:52:50.184Z,712.37
2018-03-14T09:53:50.706Z,712.37
2018-03-14T09:54:51.132Z,712.44
2018-03-14T09:56:52.075Z,712.43
2018-03-14T09:57:52.544Z,712.42
2018-03-14T09:58:53.021Z,712.38
2018-03-14T09:59:53.493Z,712.40
2018-03-14T10:00:53.970Z,712.36
2018-03-14T10:01:54.438Z,712.34
2018-03-14T10:02:54.913Z,712.29
2018-03-14T10:03:55.439Z,712.38
2018-03-14T10:04:55.859Z,712.39
2018-03-14T10:05:56.331Z,712.39
2018-03-14T10:07:57.286Z,712.39
2018-03-14T10:08:57.750Z,712.36
2018-03-14T10:09:58.223Z,712.44
2018-03-14T10:10:58.695Z,712.37
2018-03-14T10:11:59.171Z,712.27
2018-03-14T10:12:59.642Z,712.25
2018-03-14T10:14:00.119Z,712.33
2018-03-14T10:15:00.584Z,712.39
2018-03-14T10:16:01.064Z,712.31
2018-03-14T10:17:01.536Z,712.32
2018-03-14T10:19:02.483Z,712.25
2018-03-14T10:20:02.956Z,712.28
2018-03-14T10:21:03.427Z,712.30
2018-03-14T10:22:03.894Z,712.24
2018-03-14T10:23:04.375Z,712.34
2018-03-14T10:24:04.899Z,712.31
2018-03-14T10:25:05.325Z,712.20
2018-03-14T10:26:05.789Z,712.25
2018-03-14T10:27:06.268Z,712.26
2018-03-14T10:28:06.741Z,712.26
2018-03-14T10:29:07.270Z,712.24
2018-03-14T10:30:07.690Z,712.27
2018-03-14T10:31:08.160Z,712.15
2018-03-14T10:32:08.636Z,712.21
2018-03-14T10:33:09.103Z,712.16
2018-03-14T10:34:09.633Z,712.27
2018-03-14T10:35:10.055Z,712.20
2018-03-14T10:36:10.529Z,712.23
2018-03-14T10:37:11.003Z,712.19
2018-03-14T10:38:11.473Z,712.26
2018-03-14T10:39:11.950Z,712.22
2018-03-14T10:41:12.898Z,712.26
2018-03-14T10:42:13.371Z,712.33
2018-03-14T10:43:13.845Z,712.27
2018-03-14T10:44:14.321Z,712.10
2018-03-14T10:45:14.794Z,712.17
2018-03-14T10:46:15.267Z,712.17
2018-03-14T10:47:15.740Z,712.25
2018-03-14T10:48:16.208Z,712.24
2018-03-14T10:49:16.743Z,712.19
2018-03-14T10:50:17.162Z,712.21
2018-03-14T10:52:18.111Z,712.32
2018-03-14T10:53:18.590Z,712.32
2018-03-14T10:54:19.109Z,712.35
2018-03-14T10:55:19.532Z,712.36
2018-03-14T10:56:20.008Z,712.37
2018-03-14T10:57:20.475Z,712.35
2018-03-14T10:58:20.955Z,712.26
2018-03-14T10:59:21.481Z,712.36
2018-03-14T11:01:22.372Z,712.40
2018-03-14T11:02:22.855Z,712.41
2018-03-14T11:03:23.326Z,712.35
2018-03-14T11:04:23.852Z,712.35
2018-03-14T11:05:24.276Z,712.41
2018-03-14T11:06:24.749Z,712.50
2018-03-14T11:07:25.225Z,712.35
2018-03-14T11:08:25.697Z,712.40
2018-03-14T11:09:26.219Z,712.40
2018-03-14T11:10:26.648Z,712.40
2018-03-14T11:11:27.120Z,712.45
2018-03-14T11:12:27.596Z,712.36
2018-03-14T11:13:28.072Z,712.39
2018-03-14T11:14:28.546Z,712.41
2018-03-14T11:15:29.021Z,712.39
2018-03-14T11:16:29.494Z,712.42
2018-03-14T11:17:29.964Z,712.38
2018-03-14T11:18:30.444Z,712.32
2018-03-14T11:20:31.395Z,712.43
2018-03-14T11:21:31.888Z,712.34
2018-03-14T11:23:32.819Z,712.29
2018-03-14T11:24:45.030Z,712.38
2018-03-14T11:25:33.815Z,712.37
2018-03-14T11:26:34.244Z,712.35
2018-03-14T11:27:34.717Z,712.40
2018-03-14T11:28:35.186Z,712.35
2018-03-14T11:30:36.137Z,712.43
2018-03-14T11:31:36.617Z,712.48
2018-03-14T11:32:37.094Z,712.45
2018-03-14T11:33:37.566Z,712.54
2018-03-14T11:34:38.036Z,712.49
2018-03-14T11:35:38.567Z,712.52
2018-03-14T11:36:38.991Z,712.53
2018-03-14T11:37:39.465Z,712.49
2018-03-14T11:38:39.939Z,712.47
2018-03-14T11:39:40.414Z,712.46
2018-03-14T11:40:53.081Z,712.45
2018-03-14T11:41:41.362Z,712.43
2018-03-14T11:42:41.833Z,712.44
2018-03-14T11:43:42.301Z,712.45
2018-03-14T11:44:42.832Z,712.40
2018-03-14T11:45:43.255Z,712.41
2018-03-14T11:46:43.725Z,712.38
2018-03-14T11:47:44.200Z,712.41
2018-03-14T11:48:44.673Z,712.43
2018-03-14T11:49:45.146Z,712.40
2018-03-14T11:50:57.050Z,712.40
2018-03-14T11:51:46.083Z,712.34
2018-03-14T11:52:46.559Z,712.39
2018-03-14T11:53:47.031Z,712.36
2018-03-14T11:54:47.503Z,712.33
2018-03-14T11:56:00.115Z,712.38
2018-03-14T11:56:48.446Z,712.40
2018-03-14T11:57:48.917Z,712.42
2018-03-14T11:58:49.388Z,712.42
2018-03-14T11:59:49.856Z,712.41
2018-03-14T12:00:50.332Z,712.36
2018-03-14T12:01:50.802Z,712.39
2018-03-14T12:02:51.270Z,712.43
2018-03-14T12:03:51.744Z,712.42
2018-03-14T12:04:52.212Z,712.42
2018-03-14T12:05:52.679Z,712.31
2018-03-14T12:06:53.154Z,712.34
2018-03-14T12:07:53.620Z,712.40
2018-03-14T12:08:54.098Z,712.31
2018-03-14T12:09:54.568Z,712.31
2018-03-14T12:10:55.038Z,712.35
2018-03-14T12:11:55.515Z,712.34
2018-03-14T12:12:55.981Z,712.41
2018-03-14T12:13:56.454Z,712.31
2018-03-14T12:14:56.918Z,712.32
2018-03-14T12:15:57.396Z,712.36
2018-03-14T12:16:57.870Z,712.36
2018-03-14T12:17:58.340Z,712.26
2018-03-14T12:18:58.811Z,712.28
2018-03-14T12:19:59.278Z,712.31
2018-03-14T12:20:59.761Z,712.24
2018-03-14T12:22:00.227Z,712.27
2018-03-14T12:23:00.699Z,712.20
2018-03-14T12:24:01.169Z,712.24
2018-03-14T12:25:01.644Z,712.17
2018-03-14T12:26:02.162Z,712.19
2018-03-14T12:28:03.060Z,712.21
2018-03-14T12:29:03.534Z,712.21
2018-03-14T12:30:04.003Z,712.20
2018-03-14T12:31:16.112Z,712.24
2018-03-14T12:32:04.954Z,712.20
2018-03-14T12:33:05.428Z,712.21
2018-03-14T12:34:05.902Z,712.21
2018-03-14T12:36:06.846Z,712.24
2018-03-14T12:37:07.320Z,712.26
2018-03-14T12:38:07.792Z,712.15
2018-03-14T12:39:08.266Z,712.16
2018-03-14T12:40:08.739Z,712.13
2018-03-14T12:41:09.207Z,712.11
2018-03-14T12:42:09.746Z,712.19
2018-03-14T12:43:10.162Z,712.12
2018-03-14T12:44:10.636Z,712.18
2018-03-14T12:45:11.107Z,712.16
2018-03-14T12:46:11.635Z,712.17
2018-03-14T12:47:12.059Z,712.10
2018-03-14T12:48:12.534Z,712.13
2018-03-14T12:49:13.007Z,712.16
2018-03-14T12:50:13.481Z,712.10
2018-03-14T12:51:14.009Z,712.14
2018-03-14T12:52:14.470Z,712.12
2018-03-14T12:53:14.904Z,712.14
2018-03-14T12:54:15.381Z,712.12
2018-03-14T12:55:15.856Z,712.09
2018-03-14T12:56:16.367Z,712.08
2018-03-14T12:57:16.820Z,712.01
2018-03-14T12:59:17.753Z,712.05
2018-03-14T13:00:18.228Z,712.09
2018-03-14T13:02:19.183Z,711.98
2018-03-14T13:03:19.655Z,711.95
2018-03-14T13:04:20.131Z,712.01
2018-03-14T13:05:20.604Z,712.00
2018-03-14T13:06:21.125Z,712.03
2018-03-14T13:07:21.549Z,712.02
2018-03-14T13:08:22.028Z,712.02
2018-03-14T13:09:22.499Z,712.01
2018-03-14T13:10:22.979Z,711.95
2018-03-14T13:11:23.448Z,712.02
2018-03-14T13:12:23.927Z,711.96
2018-03-14T13:13:24.401Z,712.02
2018-03-14T13:15:25.349Z,711.99
2018-03-14T13:16:25.870Z,711.97
2018-03-14T13:17:26.301Z,711.98
2018-03-14T13:18:26.772Z,711.98
2018-03-14T13:19:27.245Z,712.02